Portada
METAR-TAF:

METAR-TAF

Aeroports :

Suva, Fiji

latitud: 18-03S, longitud: 178-34E, altitud: 5 m

Observació

L'informe es va fer fa 51 minuts, a les 18:00 UTC
Vent 3 kt amb direcció variable
Temperatura 21°C
Humitat 94%
Pressió 1015 hPa
Visibilitat 10 km o més
Núvols disperses a una alçada de 2000 ft
Cel ennuvolat a una alçada de 4500 ft

METAR: NFNA 231800Z VRB03KT 9999 SCT020 BKN045 21/20 Q1015

Hora: 06:51 (18:51 UTC)

Pronòstic

L'informe es va fer fa 1 hora i 40 minuts, a les 17:11 UTC
Pronòstic vàlid del 23 a les 18 UTC al 24 a les 18 UTC
Vent 3 kt amb direcció variable
Visibilitat 10 km o més
Núvols disperses a una alçada de 2000 ft
Cel ennuvolat a una alçada de 4500 ft

TAF: NFNA 231711Z 2318/2418 VRB03KT 9999 SCT020 BKN045

Observacions i pronòstics meteorològics de més de 4000 aeroports (METAR i TAF).

Les estacions disponibles són els punts grocs i vermells al mapa.

Posi el ratolí al punt desitjat per veure el nom de l'estació.

Feu clic per veure les observacions i els pronòstics meteorològics.

Per canviar el mapa: feu clic els botons verds amb una creu de color negre per apropar; al botó verd amb un guió per allunyar la imatge; o en les fletxes verdes per a mapes adjacents.


METAR-TAF: